createdAt,value
2023-03-18T00:02:01.737Z,6.83
2023-03-18T00:07:03.416Z,8.27
2023-03-18T00:12:06.487Z,7.97
2023-03-18T00:17:09.809Z,7.13
2023-03-18T00:22:11.671Z,6.57
2023-03-18T00:27:14.001Z,6.20
2023-03-18T00:32:17.295Z,6.50
2023-03-18T00:37:30.230Z,7.60
2023-03-18T00:42:38.841Z,6.77
2023-03-18T00:47:42.198Z,7.07
2023-03-18T00:52:44.067Z,7.70
2023-03-18T00:57:46.143Z,7.10
2023-03-18T01:02:49.622Z,6.23
2023-03-18T01:07:51.855Z,5.90
2023-03-18T01:12:55.331Z,6.10
2023-03-18T01:17:59.608Z,5.70
2023-03-18T01:23:01.388Z,5.30
2023-03-18T01:28:03.961Z,3.93
2023-03-18T01:33:09.750Z,4.20
2023-03-18T01:38:12.394Z,4.00
2023-03-18T01:43:15.027Z,5.60
2023-03-18T01:48:19.877Z,6.70
2023-03-18T01:53:22.054Z,5.33
2023-03-18T01:58:25.590Z,4.03
2023-03-18T02:03:28.735Z,3.40
2023-03-18T02:08:30.522Z,3.67
2023-03-18T02:13:35.683Z,3.10
2023-03-18T02:18:41.674Z,3.70
2023-03-18T02:23:47.396Z,3.20
2023-03-18T02:28:50.982Z,3.00
2023-03-18T02:33:52.862Z,2.83
2023-03-18T02:38:54.559Z,2.80
2023-03-18T02:44:01.337Z,2.67
2023-03-18T02:49:08.581Z,2.80
2023-03-18T02:54:12.756Z,3.07
2023-03-18T02:59:15.961Z,2.83
2023-03-18T03:04:17.699Z,3.53
2023-03-18T03:09:19.919Z,2.70
2023-03-18T03:14:23.132Z,2.70
2023-03-18T03:19:29.302Z,6.37
2023-03-18T03:24:31.097Z,3.27
2023-03-18T03:29:34.144Z,3.33
2023-03-18T03:34:35.820Z,3.23
2023-03-18T03:39:37.515Z,2.93
2023-03-18T03:44:40.923Z,2.93
2023-03-18T03:49:43.558Z,3.17
2023-03-18T03:54:45.614Z,2.73
2023-03-18T03:59:48.611Z,2.97
2023-03-18T04:04:53.647Z,3.00
2023-03-18T04:10:06.443Z,2.70
2023-03-18T04:15:10.494Z,3.03
2023-03-18T04:20:13.056Z,3.30
2023-03-18T04:25:15.025Z,2.77
2023-03-18T04:30:20.263Z,3.30
2023-03-18T04:35:35.062Z,3.47
2023-03-18T04:40:37.330Z,3.13
2023-03-18T04:45:40.445Z,3.40
2023-03-18T04:50:43.513Z,3.30
2023-03-18T04:55:49.822Z,3.30
2023-03-18T05:00:54.685Z,3.80
2023-03-18T05:06:01.523Z,3.93
2023-03-18T05:11:13.507Z,5.47
2023-03-18T05:16:17.048Z,4.00
2023-03-18T05:21:21.453Z,3.80
2023-03-18T05:26:24.638Z,4.00
2023-03-18T05:31:27.939Z,4.60
2023-03-18T05:36:29.829Z,3.80
2023-03-18T05:41:37.383Z,4.13
2023-03-18T05:46:43.707Z,4.13
2023-03-18T05:51:52.167Z,4.50
2023-03-18T05:57:07.375Z,4.10
2023-03-18T06:02:11.702Z,4.67
2023-03-18T06:07:13.531Z,4.83
2023-03-18T06:12:15.689Z,4.23
2023-03-18T06:17:19.326Z,4.27
2023-03-18T06:22:21.034Z,4.13
2023-03-18T06:27:23.334Z,4.70
2023-03-18T06:32:31.602Z,4.00
2023-03-18T06:37:33.910Z,4.97
2023-03-18T06:42:35.835Z,4.27
2023-03-18T06:47:45.007Z,4.07
2023-03-18T06:52:47.989Z,4.60
2023-03-18T06:57:53.084Z,4.00
2023-03-18T07:03:01.429Z,4.07
2023-03-18T07:08:04.495Z,4.00
2023-03-18T07:13:06.229Z,4.20
2023-03-18T07:18:11.984Z,4.20
2023-03-18T07:23:14.108Z,4.93
2023-03-18T07:28:16.267Z,4.50
2023-03-18T07:33:20.057Z,4.07
2023-03-18T07:38:21.795Z,4.00
2023-03-18T07:43:23.630Z,4.23
2023-03-18T07:48:26.694Z,3.67
2023-03-18T07:53:28.468Z,3.87
2023-03-18T07:58:30.306Z,4.63
2023-03-18T08:03:33.845Z,3.77
2023-03-18T08:08:35.622Z,3.43
2023-03-18T08:13:38.376Z,3.20
2023-03-18T08:18:42.030Z,3.30
2023-03-18T08:23:43.818Z,3.60
2023-03-18T08:28:45.719Z,4.17
2023-03-18T08:33:51.811Z,3.40
2023-03-18T08:38:53.705Z,4.00
2023-03-18T08:43:57.304Z,3.90
2023-03-18T08:49:00.566Z,3.97
2023-03-18T08:54:02.257Z,3.53
2023-03-18T08:59:03.998Z,3.17
2023-03-18T09:04:06.992Z,3.20
2023-03-18T09:09:08.841Z,2.90
2023-03-18T09:14:10.529Z,2.80
2023-03-18T09:19:13.734Z,2.97
2023-03-18T09:24:15.602Z,3.35
2023-03-18T09:29:17.302Z,4.97
2023-03-18T09:34:20.308Z,3.58
2023-03-18T09:39:22.009Z,3.80
2023-03-18T09:44:24.384Z,3.93
2023-03-18T09:49:49.510Z,3.67
2023-03-18T09:54:56.398Z,3.40
2023-03-18T10:00:00.457Z,4.00
2023-03-18T10:05:04.699Z,5.00
2023-03-18T10:10:07.731Z,5.00
2023-03-18T10:15:16.277Z,4.47
2023-03-18T10:20:20.525Z,4.80
2023-03-18T10:25:25.783Z,4.30
2023-03-18T10:30:34.083Z,4.80
2023-03-18T10:35:39.034Z,5.57
2023-03-18T10:40:41.304Z,4.80
2023-03-18T10:45:43.004Z,3.95
2023-03-18T10:50:47.287Z,4.10
2023-03-18T10:55:54.909Z,5.00
2023-03-18T11:00:59.020Z,5.43
2023-03-18T11:06:04.311Z,5.60
2023-03-18T11:11:20.963Z,4.67
2023-03-18T11:16:31.693Z,5.47
2023-03-18T11:21:34.735Z,5.67
2023-03-18T11:26:47.833Z,4.83
2023-03-18T11:31:51.901Z,4.80
2023-03-18T11:36:58.889Z,4.97
2023-03-18T11:42:00.724Z,4.83
2023-03-18T11:47:04.664Z,4.20
2023-03-18T11:52:15.432Z,3.87
2023-03-18T11:57:19.714Z,3.37
2023-03-18T12:02:34.212Z,2.60
2023-03-18T12:07:47.459Z,2.67
2023-03-18T12:13:05.455Z,2.70
2023-03-18T12:18:11.946Z,2.53
2023-03-18T12:23:26.061Z,2.93
2023-03-18T12:28:32.819Z,3.53
2023-03-18T12:33:42.946Z,2.40
2023-03-18T12:39:04.082Z,1.90
2023-03-18T12:44:12.111Z,2.20
2023-03-18T12:49:16.074Z,2.00
2023-03-18T12:54:21.510Z,2.60
2023-03-18T12:59:27.666Z,2.90
2023-03-18T13:04:30.292Z,2.60
2023-03-18T13:09:35.933Z,3.33
2023-03-18T13:14:48.171Z,3.17
2023-03-18T13:19:50.152Z,3.43
2023-03-18T13:25:08.613Z,4.77
2023-03-18T13:30:16.273Z,3.00
2023-03-18T13:35:33.314Z,2.40
2023-03-18T13:40:45.100Z,2.13
2023-03-18T13:45:47.322Z,2.43
2023-03-18T13:50:50.609Z,2.33
2023-03-18T13:56:00.645Z,2.10
2023-03-18T14:01:16.117Z,2.57
2023-03-18T14:06:24.822Z,2.60
2023-03-18T14:11:50.087Z,2.33
2023-03-18T14:16:52.322Z,2.90
2023-03-18T14:21:55.066Z,2.20
2023-03-18T14:27:13.122Z,2.30
2023-03-18T14:32:31.057Z,2.67
2023-03-18T14:37:33.959Z,3.13
2023-03-18T14:42:45.669Z,3.10
2023-03-18T14:47:50.812Z,3.60
2023-03-18T14:52:55.272Z,4.00
2023-03-18T14:57:58.328Z,3.30
2023-03-18T15:03:01.462Z,16.53
2023-03-18T15:08:06.888Z,4.10
2023-03-18T15:13:13.133Z,3.23
2023-03-18T15:18:20.172Z,2.87
2023-03-18T15:23:27.046Z,3.43
2023-03-18T15:28:30.218Z,3.50
2023-03-18T15:33:35.044Z,3.70
2023-03-18T15:38:36.916Z,4.23
2023-03-18T15:43:41.912Z,3.73
2023-03-18T15:48:44.549Z,6.47
2023-03-18T15:53:47.849Z,5.53
2023-03-18T15:58:58.795Z,3.83
2023-03-18T16:04:00.629Z,4.07
2023-03-18T16:09:13.714Z,3.70
2023-03-18T16:14:17.406Z,21.67
2023-03-18T16:19:24.787Z,10.80
2023-03-18T16:24:26.993Z,6.40
2023-03-18T16:29:30.851Z,4.60
2023-03-18T16:34:33.380Z,3.57
2023-03-18T16:39:35.089Z,3.13
2023-03-18T16:44:38.136Z,3.83
2023-03-18T16:49:40.422Z,3.00
2023-03-18T16:54:42.826Z,6.77
2023-03-18T16:59:47.888Z,6.00
2023-03-18T17:04:49.613Z,6.30
2023-03-18T17:09:51.991Z,4.63
2023-03-18T17:15:00.370Z,3.77
2023-03-18T17:20:16.438Z,4.23
2023-03-18T17:25:20.271Z,5.80
2023-03-18T17:30:34.085Z,12.77
2023-03-18T17:35:37.101Z,14.13
2023-03-18T17:40:40.869Z,18.07
2023-03-18T17:45:46.697Z,15.60
2023-03-18T17:50:49.607Z,10.00
2023-03-18T17:55:51.850Z,10.07
2023-03-18T18:00:55.543Z,10.23
2023-03-18T18:05:58.357Z,8.77
2023-03-18T18:11:04.387Z,8.23
2023-03-18T18:16:07.977Z,7.50
2023-03-18T18:21:11.834Z,7.33
2023-03-18T18:26:14.730Z,21.20
2023-03-18T18:31:19.437Z,27.70
2023-03-18T18:36:21.352Z,16.10
2023-03-18T18:41:23.048Z,22.70
2023-03-18T18:46:26.427Z,18.87
2023-03-18T18:51:28.278Z,9.13
2023-03-18T18:56:32.113Z,9.10
2023-03-18T19:01:35.126Z,6.43
2023-03-18T19:06:37.642Z,11.90
2023-03-18T19:11:39.538Z,30.90
2023-03-18T19:16:43.389Z,51.67
2023-03-18T19:21:45.122Z,66.00
2023-03-18T19:26:46.872Z,51.20
2023-03-18T19:31:50.249Z,37.77
2023-03-18T19:36:53.264Z,26.43
2023-03-18T19:41:55.626Z,21.40
2023-03-18T19:47:00.967Z,22.10
2023-03-18T19:52:03.590Z,16.70
2023-03-18T19:57:06.646Z,16.17
2023-03-18T20:02:18.373Z,14.30
2023-03-18T20:07:21.465Z,13.00
2023-03-18T20:12:24.469Z,18.53
2023-03-18T20:17:33.430Z,25.60
2023-03-18T20:22:36.699Z,52.00
2023-03-18T20:27:38.407Z,44.27
2023-03-18T20:32:43.922Z,50.00
2023-03-18T20:37:46.364Z,27.13
2023-03-18T20:42:48.173Z,18.70
2023-03-18T20:47:51.254Z,26.23
2023-03-18T20:52:53.367Z,16.83
2023-03-18T20:57:55.202Z,15.97
2023-03-18T21:02:58.614Z,14.47
2023-03-18T21:08:00.392Z,14.50
2023-03-18T21:13:02.436Z,11.13
2023-03-18T21:18:05.653Z,9.10
2023-03-18T21:23:17.151Z,8.50
2023-03-18T21:28:19.728Z,8.40
2023-03-18T21:33:24.429Z,10.87
2023-03-18T21:38:27.024Z,12.53
2023-03-18T21:43:30.819Z,11.67
2023-03-18T21:48:34.090Z,12.40
2023-03-18T21:53:35.777Z,11.23
2023-03-18T21:58:37.519Z,13.27
2023-03-18T22:03:40.595Z,12.87
2023-03-18T22:08:42.589Z,12.20
2023-03-18T22:13:44.479Z,15.00
2023-03-18T22:18:47.976Z,15.17
2023-03-18T22:23:49.764Z,15.07
2023-03-18T22:28:51.540Z,14.00
2023-03-18T22:33:54.685Z,15.70
2023-03-18T22:38:56.391Z,15.83
2023-03-18T22:43:59.876Z,14.60
2023-03-18T22:49:07.984Z,14.63
2023-03-18T22:54:13.038Z,14.20
2023-03-18T22:59:14.806Z,13.63
2023-03-18T23:04:19.595Z,14.67
2023-03-18T23:09:21.473Z,14.00
2023-03-18T23:14:23.225Z,16.60
2023-03-18T23:19:26.299Z,15.93
2023-03-18T23:24:28.009Z,16.73
2023-03-18T23:29:29.716Z,15.37
2023-03-18T23:34:32.767Z,13.87
2023-03-18T23:39:34.484Z,12.53
2023-03-18T23:44:36.195Z,15.20
2023-03-18T23:49:39.702Z,15.70
2023-03-18T23:54:41.504Z,12.27
2023-03-18T23:59:43.259Z,12.43
